Venividivici — ZCPL9 — position and weather

sailwx.info

Track history (hours):
 
Tides and Currents Weather Stations Pressure Air Temp Water Temp Dewpoint Dewpoint Depression Visibility Wind Speed Wind Dir Waves Ship Positions

Venividivici

Last reported at 2014-Jul-24 04:30 UTC. Time now 2014-Jul-24 05:52 UTC.
Position N 43°17' E 006°38'.

Length 40 m; draft 2 m.

MMSI: 319081000.

Date/timePositionNaut miles runAvg speedWind from/ knotsBaromVisibWave heightAir tempDewpointWater temp
2014-Jul-24 04:30N 43°17' E 006°38'0 0.0
2014-Jul-24 03:31N 43°17' E 006°38'0 0.0
2014-Jul-24 02:31N 43°17' E 006°38'0 0.0
2014-Jul-24 01:32N 43°17' E 006°38'0 0.0
2014-Jul-24 00:27N 43°17' E 006°38'0 0.0
2014-Jul-23 23:33N 43°17' E 006°38'0 0.0
2014-Jul-23 22:19N 43°17' E 006°38'0 0.0
2014-Jul-23 21:29N 43°17' E 006°38'0 0.0
2014-Jul-23 20:32N 43°17' E 006°38'0 0.0
2014-Jul-23 19:27N 43°17' E 006°38'1 0.8
2014-Jul-23 18:33N 43°17' E 006°39'1 0.7
2014-Jul-23 17:27N 43°16' E 006°40'0 0.0
2014-Jul-23 16:28N 43°16' E 006°40'0 0.0
2014-Jul-23 15:31N 43°16' E 006°40'0 0.0
2014-Jul-23 14:32N 43°16' E 006°40'0 0.0
2014-Jul-23 13:33N 43°16' E 006°40'0 0.0
2014-Jul-23 12:33N 43°16' E 006°40'1 1.0
2014-Jul-23 11:33N 43°16' E 006°38'1 0.0
2014-Jul-22 17:33N 43°17' E 006°39'3 3.3
2014-Jul-22 16:32N 43°14' E 006°40'0 0.0
2014-Jul-22 15:33N 43°14' E 006°40'0 0.0
2014-Jul-22 14:33N 43°14' E 006°40'0 0.0
2014-Jul-22 13:28N 43°14' E 006°40'0 0.0
2014-Jul-22 12:33N 43°14' E 006°40'3 2.4
2014-Jul-22 11:15N 43°16' E 006°38'0 0.6
2014-Jul-22 10:29N 43°16' E 006°38'1314.0
2014-Jul-22 09:34N 43°24' E 006°52'11 4.6
2014-Jul-22 07:05N 43°33' E 007°01'0 0.0
2014-Jul-21 22:14N 43°33' E 007°01'0 0.0
2014-Jul-21 19:49N 43°33' E 007°01'0 0.0
2014-Jul-21 14:11N 43°33' E 007°01'0 0.0
2014-Jul-21 13:26N 43°33' E 007°01'0 0.0
2014-Jul-20 10:32N 43°33' E 007°01'0 0.0
2014-Jul-20 09:33N 43°33' E 007°01'0 0.0
2014-Jul-20 08:33N 43°33' E 007°01'0 0.0
2014-Jul-20 07:25N 43°33' E 007°01'0 0.0
2014-Jul-20 06:29N 43°33' E 007°01'0 0.0
2014-Jul-20 05:32N 43°33' E 007°01'0 0.0
2014-Jul-20 04:21N 43°33' E 007°01'0 0.0
2014-Jul-20 02:22N 43°33' E 007°01'0 0.0
2014-Jul-20 01:32N 43°33' E 007°01'0 0.0
2014-Jul-20 00:33N 43°33' E 007°01'0 0.0
2014-Jul-19 23:24N 43°33' E 007°01'0 0.0
2014-Jul-19 22:28N 43°33' E 007°01'0 0.0
2014-Jul-19 21:23N 43°33' E 007°01'0 0.0
2014-Jul-19 20:20N 43°33' E 007°01'0 0.0
2014-Jul-19 19:24N 43°33' E 007°01'0 0.0
2014-Jul-19 18:13N 43°33' E 007°01'0 0.0
2014-Jul-19 17:22N 43°33' E 007°01'0 0.0
2014-Jul-19 13:28N 43°33' E 007°01'0 0.0
2014-Jul-19 12:29N 43°33' E 007°01'0 0.0
2014-Jul-19 11:26N 43°33' E 007°01'0 0.0
2014-Jul-19 10:27N 43°33' E 007°01'0 0.0
2014-Jul-19 09:13N 43°33' E 007°01'0 0.0
2014-Jul-18 20:16N 43°33' E 007°01'0 0.0
2014-Jul-18 16:30N 43°33' E 007°01'0 0.0
2014-Jul-18 15:19N 43°33' E 007°01'0 0.0
2014-Jul-18 11:27N 43°33' E 007°01'0 0.0
2014-Jul-18 10:28N 43°33' E 007°01'0 0.0
2014-Jul-18 09:23N 43°33' E 007°01'0 0.0
2014-Jul-17 16:13N 43°33' E 007°01'0 0.0
2014-Jul-17 15:20N 43°33' E 007°01'0 0.0
2014-Jul-17 14:32N 43°33' E 007°01'0 0.0
2014-Jul-17 13:30N 43°33' E 007°01'0 0.0
2014-Jul-17 12:31N 43°33' E 007°01'0 0.0
2014-Jul-17 11:31N 43°33' E 007°01'0 0.0
2014-Jul-17 10:23N 43°33' E 007°01'0 0.0
2014-Jul-17 09:27N 43°33' E 007°01'0 0.0
2014-Jul-17 08:33N 43°33' E 007°01'0 0.0
2014-Jul-17 01:32N 43°33' E 007°01'0 0.0
2014-Jul-16 23:04N 43°33' E 007°01'0 0.0
2014-Jul-16 22:22N 43°33' E 007°01'0 0.0
2014-Jul-16 21:23N 43°33' E 007°01'0 0.0
2014-Jul-16 13:28N 43°33' E 007°01'0 0.0
2014-Jul-15 12:15N 43°33' E 007°01'0 0.0
2014-Jul-15 11:25N 43°33' E 007°01'0 0.0
2014-Jul-14 23:24N 43°33' E 007°01'0 0.0
2014-Jul-14 22:24N 43°33' E 007°01'0 0.0
2014-Jul-14 21:19N 43°33' E 007°01'0 0.0
2014-Jul-14 20:32N 43°33' E 007°01'0 0.0
2014-Jul-14 18:15N 43°33' E 007°01'0 0.0
2014-Jul-14 17:25N 43°33' E 007°01'0 0.0
2014-Jul-14 16:31N 43°33' E 007°01'0 0.0
2014-Jul-14 15:32N 43°33' E 007°01'0 0.0
2014-Jul-14 13:27N 43°33' E 007°01'  
Track history (hours):
 
Tides and Currents Weather Stations Pressure Air Temp Water Temp Dewpoint Dewpoint Depression Visibility Wind Speed Wind Dir Waves Ship Positions

Venividivici

Last reported at 2014-Jul-24 04:30 UTC. Time now 2014-Jul-24 05:52 UTC.
Position N 43°17' E 006°38'.

Length 40 m; draft 2 m.

MMSI: 319081000.

Date/timePositionNaut miles runAvg speedWind from/ knotsBaromVisibWave heightAir tempDewpointWater temp
2014-Jul-24 04:30N 43°17' E 006°38'0 0.0
2014-Jul-24 03:31N 43°17' E 006°38'0 0.0
2014-Jul-24 02:31N 43°17' E 006°38'0 0.0
2014-Jul-24 01:32N 43°17' E 006°38'0 0.0
2014-Jul-24 00:27N 43°17' E 006°38'0 0.0
2014-Jul-23 23:33N 43°17' E 006°38'0 0.0
2014-Jul-23 22:19N 43°17' E 006°38'0 0.0
2014-Jul-23 21:29N 43°17' E 006°38'0 0.0
2014-Jul-23 20:32N 43°17' E 006°38'0 0.0
2014-Jul-23 19:27N 43°17' E 006°38'1 0.8
2014-Jul-23 18:33N 43°17' E 006°39'1 0.7
2014-Jul-23 17:27N 43°16' E 006°40'0 0.0
2014-Jul-23 16:28N 43°16' E 006°40'0 0.0
2014-Jul-23 15:31N 43°16' E 006°40'0 0.0
2014-Jul-23 14:32N 43°16' E 006°40'0 0.0
2014-Jul-23 13:33N 43°16' E 006°40'0 0.0
2014-Jul-23 12:33N 43°16' E 006°40'1 1.0
2014-Jul-23 11:33N 43°16' E 006°38'1 0.0
2014-Jul-22 17:33N 43°17' E 006°39'3 3.3
2014-Jul-22 16:32N 43°14' E 006°40'0 0.0
2014-Jul-22 15:33N 43°14' E 006°40'0 0.0
2014-Jul-22 14:33N 43°14' E 006°40'0 0.0
2014-Jul-22 13:28N 43°14' E 006°40'0 0.0
2014-Jul-22 12:33N 43°14' E 006°40'3 2.4
2014-Jul-22 11:15N 43°16' E 006°38'0 0.6
2014-Jul-22 10:29N 43°16' E 006°38'1314.0
2014-Jul-22 09:34N 43°24' E 006°52'11 4.6
2014-Jul-22 07:05N 43°33' E 007°01'0 0.0
2014-Jul-21 22:14N 43°33' E 007°01'0 0.0
2014-Jul-21 19:49N 43°33' E 007°01'0 0.0
2014-Jul-21 14:11N 43°33' E 007°01'0 0.0
2014-Jul-21 13:26N 43°33' E 007°01'0 0.0
2014-Jul-20 10:32N 43°33' E 007°01'0 0.0
2014-Jul-20 09:33N 43°33' E 007°01'0 0.0
2014-Jul-20 08:33N 43°33' E 007°01'0 0.0
2014-Jul-20 07:25N 43°33' E 007°01'0 0.0
2014-Jul-20 06:29N 43°33' E 007°01'0 0.0
2014-Jul-20 05:32N 43°33' E 007°01'0 0.0
2014-Jul-20 04:21N 43°33' E 007°01'0 0.0
2014-Jul-20 02:22N 43°33' E 007°01'0 0.0
2014-Jul-20 01:32N 43°33' E 007°01'0 0.0
2014-Jul-20 00:33N 43°33' E 007°01'0 0.0
2014-Jul-19 23:24N 43°33' E 007°01'0 0.0
2014-Jul-19 22:28N 43°33' E 007°01'0 0.0
2014-Jul-19 21:23N 43°33' E 007°01'0 0.0
2014-Jul-19 20:20N 43°33' E 007°01'0 0.0
2014-Jul-19 19:24N 43°33' E 007°01'0 0.0
2014-Jul-19 18:13N 43°33' E 007°01'0 0.0
2014-Jul-19 17:22N 43°33' E 007°01'0 0.0
2014-Jul-19 13:28N 43°33' E 007°01'0 0.0
2014-Jul-19 12:29N 43°33' E 007°01'0 0.0
2014-Jul-19 11:26N 43°33' E 007°01'0 0.0
2014-Jul-19 10:27N 43°33' E 007°01'0 0.0
2014-Jul-19 09:13N 43°33' E 007°01'0 0.0
2014-Jul-18 20:16N 43°33' E 007°01'0 0.0
2014-Jul-18 16:30N 43°33' E 007°01'0 0.0
2014-Jul-18 15:19N 43°33' E 007°01'0 0.0
2014-Jul-18 11:27N 43°33' E 007°01'0 0.0
2014-Jul-18 10:28N 43°33' E 007°01'0 0.0
2014-Jul-18 09:23N 43°33' E 007°01'0 0.0
2014-Jul-17 16:13N 43°33' E 007°01'0 0.0
2014-Jul-17 15:20N 43°33' E 007°01'0 0.0
2014-Jul-17 14:32N 43°33' E 007°01'0 0.0
2014-Jul-17 13:30N 43°33' E 007°01'0 0.0
2014-Jul-17 12:31N 43°33' E 007°01'0 0.0
2014-Jul-17 11:31N 43°33' E 007°01'0 0.0
2014-Jul-17 10:23N 43°33' E 007°01'0 0.0
2014-Jul-17 09:27N 43°33' E 007°01'0 0.0
2014-Jul-17 08:33N 43°33' E 007°01'0 0.0
2014-Jul-17 01:32N 43°33' E 007°01'0 0.0
2014-Jul-16 23:04N 43°33' E 007°01'0 0.0
2014-Jul-16 22:22N 43°33' E 007°01'0 0.0
2014-Jul-16 21:23N 43°33' E 007°01'0 0.0
2014-Jul-16 13:28N 43°33' E 007°01'0 0.0
2014-Jul-15 12:15N 43°33' E 007°01'0 0.0
2014-Jul-15 11:25N 43°33' E 007°01'0 0.0
2014-Jul-14 23:24N 43°33' E 007°01'0 0.0
2014-Jul-14 22:24N 43°33' E 007°01'0 0.0
2014-Jul-14 21:19N 43°33' E 007°01'0 0.0
2014-Jul-14 20:32N 43°33' E 007°01'0 0.0
2014-Jul-14 18:15N 43°33' E 007°01'0 0.0
2014-Jul-14 17:25N 43°33' E 007°01'0 0.0
2014-Jul-14 16:31N 43°33' E 007°01'0 0.0
2014-Jul-14 15:32N 43°33' E 007°01'0 0.0
2014-Jul-14 13:27N 43°33' E 007°01'  

Dump ship's entire track history